createdAt,value
2017-09-04T00:00:47.780Z,3.07
2017-09-04T00:03:16.122Z,3.03
2017-09-04T00:05:44.578Z,2.97
2017-09-04T00:08:12.940Z,2.30
2017-09-04T00:10:41.106Z,3.70
2017-09-04T00:13:09.223Z,3.30
2017-09-04T00:15:37.352Z,2.60
2017-09-04T00:18:05.502Z,2.80
2017-09-04T00:20:33.646Z,2.60
2017-09-04T00:23:01.842Z,2.80
2017-09-04T00:25:29.976Z,2.57
2017-09-04T00:27:58.117Z,2.90
2017-09-04T00:30:26.310Z,2.60
2017-09-04T00:32:54.640Z,2.60
2017-09-04T00:35:22.753Z,2.70
2017-09-04T00:37:50.901Z,2.80
2017-09-04T00:40:19.034Z,3.13
2017-09-04T00:42:47.238Z,3.17
2017-09-04T00:45:15.385Z,2.70
2017-09-04T00:47:43.568Z,2.73
2017-09-04T00:50:12.464Z,3.83
2017-09-04T00:52:40.611Z,3.60
2017-09-04T00:55:08.747Z,3.47
2017-09-04T01:00:11.630Z,3.07
2017-09-04T01:02:40.541Z,3.83
2017-09-04T01:05:09.468Z,3.63
2017-09-04T01:07:37.664Z,3.73
2017-09-04T01:10:05.848Z,3.30
2017-09-04T01:12:33.990Z,3.00
2017-09-04T01:15:02.328Z,2.83
2017-09-04T01:17:30.544Z,3.57
2017-09-04T01:19:58.688Z,3.60
2017-09-04T01:22:26.893Z,3.70
2017-09-04T01:24:54.999Z,2.57
2017-09-04T01:27:23.163Z,2.90
2017-09-04T01:29:51.346Z,2.50
2017-09-04T01:32:19.464Z,3.70
2017-09-04T01:34:47.584Z,3.40
2017-09-04T01:37:15.802Z,2.90
2017-09-04T01:39:43.988Z,3.57
2017-09-04T01:42:12.205Z,3.13
2017-09-04T01:44:40.365Z,3.17
2017-09-04T01:47:08.497Z,3.33
2017-09-04T01:49:36.612Z,3.17
2017-09-04T01:52:04.783Z,3.00
2017-09-04T01:54:32.919Z,3.00
2017-09-04T01:57:01.045Z,3.20
2017-09-04T01:59:29.214Z,3.17
2017-09-04T02:01:57.379Z,2.93
2017-09-04T02:04:25.484Z,2.90
2017-09-04T02:06:53.638Z,3.20
2017-09-04T02:09:21.762Z,3.03
2017-09-04T02:11:49.883Z,3.30
2017-09-04T02:14:18.009Z,3.30
2017-09-04T02:16:46.128Z,3.20
2017-09-04T02:19:14.259Z,3.17
2017-09-04T02:21:42.416Z,3.23
2017-09-04T02:24:10.712Z,3.43
2017-09-04T02:26:38.843Z,3.50
2017-09-04T02:29:06.972Z,3.30
2017-09-04T02:31:35.073Z,3.60
2017-09-04T02:34:03.238Z,3.50
2017-09-04T02:36:31.380Z,3.30
2017-09-04T02:38:59.719Z,3.67
2017-09-04T02:41:27.886Z,2.97
2017-09-04T02:43:56.039Z,2.63
2017-09-04T02:46:24.167Z,2.97
2017-09-04T02:48:52.277Z,3.60
2017-09-04T02:51:21.200Z,2.90
2017-09-04T02:53:49.345Z,3.30
2017-09-04T02:56:17.524Z,3.20
2017-09-04T02:58:45.680Z,3.30
2017-09-04T03:01:15.197Z,3.77
2017-09-04T03:03:43.324Z,2.90
2017-09-04T03:06:12.094Z,3.73
2017-09-04T03:08:40.218Z,3.27
2017-09-04T03:11:08.358Z,3.47
2017-09-04T03:13:36.516Z,2.97
2017-09-04T03:16:04.656Z,2.83
2017-09-04T03:18:32.829Z,3.27
2017-09-04T03:21:01.004Z,3.00
2017-09-04T03:23:29.115Z,2.37
2017-09-04T03:25:57.244Z,3.60
2017-09-04T03:28:26.160Z,3.30
2017-09-04T03:30:54.313Z,3.53
2017-09-04T03:33:22.439Z,3.47
2017-09-04T03:35:50.580Z,3.10
2017-09-04T03:38:18.730Z,3.90
2017-09-04T03:40:46.946Z,3.77
2017-09-04T03:43:15.050Z,3.73
2017-09-04T03:45:43.175Z,3.23
2017-09-04T03:48:11.535Z,3.47
2017-09-04T03:50:39.683Z,3.70
2017-09-04T03:53:07.774Z,3.33
2017-09-04T03:55:35.922Z,2.90
2017-09-04T03:58:04.024Z,2.90
2017-09-04T04:00:32.175Z,3.13
2017-09-04T04:03:00.306Z,3.23
2017-09-04T04:05:28.409Z,3.50
2017-09-04T04:07:56.643Z,4.30
2017-09-04T04:10:24.839Z,3.97
2017-09-04T04:12:52.962Z,4.30
2017-09-04T04:15:21.082Z,4.57
2017-09-04T04:17:49.197Z,3.87
2017-09-04T04:20:17.396Z,4.10
2017-09-04T04:22:45.529Z,3.90
2017-09-04T04:25:13.700Z,3.80
2017-09-04T04:27:41.791Z,3.97
2017-09-04T04:30:09.949Z,3.90
2017-09-04T04:32:39.108Z,3.97
2017-09-04T04:35:07.911Z,3.30
2017-09-04T04:37:36.027Z,3.40
2017-09-04T04:40:04.307Z,3.77
2017-09-04T04:42:32.451Z,4.20
2017-09-04T04:45:00.642Z,4.07
2017-09-04T04:47:28.809Z,4.00
2017-09-04T04:49:56.953Z,4.30
2017-09-04T04:52:25.888Z,3.27
2017-09-04T04:54:54.263Z,3.80
2017-09-04T04:57:22.383Z,4.30
2017-09-04T04:59:50.510Z,4.20
2017-09-04T05:02:18.637Z,4.50
2017-09-04T05:04:46.859Z,4.80
2017-09-04T05:07:15.030Z,4.63
2017-09-04T05:09:44.010Z,5.53
2017-09-04T05:12:12.134Z,6.27
2017-09-04T05:14:40.283Z,4.60
2017-09-04T05:17:08.530Z,4.50
2017-09-04T05:19:36.659Z,4.03
2017-09-04T05:22:04.792Z,4.63
2017-09-04T05:24:32.977Z,3.70
2017-09-04T05:27:01.142Z,4.20
2017-09-04T05:29:29.613Z,4.57
2017-09-04T05:31:57.791Z,3.47
2017-09-04T05:34:25.955Z,3.33
2017-09-04T05:36:54.062Z,4.40
2017-09-04T05:39:22.233Z,3.33
2017-09-04T05:41:50.428Z,3.77
2017-09-04T05:44:18.539Z,3.50
2017-09-04T05:46:46.718Z,3.67
2017-09-04T05:49:14.908Z,3.60
2017-09-04T05:51:43.172Z,3.97
2017-09-04T05:54:11.811Z,3.63
2017-09-04T05:56:40.043Z,3.17
2017-09-04T05:59:08.209Z,3.60
2017-09-04T06:01:36.595Z,3.03
2017-09-04T06:04:04.911Z,3.50
2017-09-04T06:06:33.098Z,3.13
2017-09-04T06:09:01.291Z,2.40
2017-09-04T06:11:29.444Z,2.67
2017-09-04T06:13:58.564Z,2.90
2017-09-04T06:16:26.905Z,2.87
2017-09-04T06:18:55.044Z,3.23
2017-09-04T06:21:23.353Z,2.70
2017-09-04T06:23:51.585Z,2.43
2017-09-04T06:26:19.711Z,3.07
2017-09-04T06:28:47.881Z,1.80
2017-09-04T06:31:16.909Z,1.80
2017-09-04T06:33:45.019Z,1.90
2017-09-04T06:36:13.171Z,2.50
2017-09-04T06:38:41.337Z,1.87
2017-09-04T06:41:09.532Z,2.00
2017-09-04T06:43:39.517Z,1.77
2017-09-04T06:46:07.847Z,2.20
2017-09-04T06:48:36.245Z,2.23
2017-09-04T06:51:04.357Z,2.00
2017-09-04T06:53:32.507Z,2.10
2017-09-04T06:56:01.034Z,2.27
2017-09-04T06:58:29.159Z,2.33
2017-09-04T07:00:57.276Z,2.43
2017-09-04T07:03:25.405Z,2.37
2017-09-04T07:05:53.537Z,2.00
2017-09-04T07:08:21.695Z,2.10
2017-09-04T07:10:49.829Z,2.00
2017-09-04T07:13:17.964Z,1.93
2017-09-04T07:15:46.092Z,1.87
2017-09-04T07:18:14.871Z,1.50
2017-09-04T07:20:43.806Z,1.40
2017-09-04T07:23:14.817Z,1.60
2017-09-04T07:25:42.925Z,1.60
2017-09-04T07:28:11.048Z,1.57
2017-09-04T07:30:39.211Z,2.00
2017-09-04T07:33:07.398Z,1.63
2017-09-04T07:35:35.518Z,2.00
2017-09-04T07:38:03.675Z,1.97
2017-09-04T07:40:31.822Z,1.53
2017-09-04T07:42:59.946Z,1.40
2017-09-04T07:45:28.063Z,1.90
2017-09-04T07:47:56.311Z,1.70
2017-09-04T07:50:24.444Z,2.10
2017-09-04T07:52:52.680Z,1.30
2017-09-04T07:55:20.788Z,1.90
2017-09-04T07:57:48.918Z,2.10
2017-09-04T08:00:17.086Z,1.60
2017-09-04T08:02:45.232Z,1.87
2017-09-04T08:05:13.322Z,1.57
2017-09-04T08:07:41.529Z,1.53
2017-09-04T08:10:09.771Z,1.70
2017-09-04T08:12:37.912Z,1.77
2017-09-04T08:15:06.031Z,1.70
2017-09-04T08:17:34.166Z,2.00
2017-09-04T08:20:02.370Z,1.93
2017-09-04T08:22:30.509Z,1.57
2017-09-04T08:24:58.654Z,1.57
2017-09-04T08:27:27.484Z,1.50
2017-09-04T08:29:55.650Z,1.50
2017-09-04T08:32:23.749Z,1.30
2017-09-04T08:34:51.902Z,1.93
2017-09-04T08:37:20.069Z,1.63
2017-09-04T08:39:48.321Z,1.67
2017-09-04T08:42:16.519Z,1.33
2017-09-04T08:44:44.694Z,1.80
2017-09-04T08:47:12.816Z,1.80
2017-09-04T08:49:41.543Z,1.43
2017-09-04T08:52:09.674Z,1.73
2017-09-04T08:54:37.828Z,1.33
2017-09-04T08:57:05.972Z,1.50
2017-09-04T08:59:34.134Z,1.47
2017-09-04T09:02:02.264Z,1.60
2017-09-04T09:04:30.398Z,1.33
2017-09-04T09:06:58.799Z,1.83
2017-09-04T09:09:26.900Z,1.70
2017-09-04T09:11:55.005Z,1.57
2017-09-04T09:14:23.128Z,1.60
2017-09-04T09:16:51.978Z,1.97
2017-09-04T09:19:20.312Z,2.20
2017-09-04T09:21:51.119Z,1.50
2017-09-04T09:24:19.260Z,1.83
2017-09-04T09:26:48.103Z,1.70
2017-09-04T09:29:16.288Z,1.67
2017-09-04T09:31:44.449Z,2.00
2017-09-04T09:34:12.601Z,1.50
2017-09-04T09:36:40.742Z,1.40
2017-09-04T09:39:08.859Z,1.97
2017-09-04T09:41:36.996Z,2.00
2017-09-04T09:44:05.245Z,1.47
2017-09-04T09:46:34.122Z,1.40
2017-09-04T09:49:02.274Z,1.40
2017-09-04T09:51:30.405Z,1.50
2017-09-04T09:53:58.534Z,1.50
2017-09-04T09:56:26.664Z,1.77
2017-09-04T09:58:54.804Z,1.50
2017-09-04T10:01:22.939Z,1.63
2017-09-04T10:03:51.049Z,1.73
2017-09-04T10:06:19.156Z,1.60
2017-09-04T10:08:47.302Z,1.37
2017-09-04T10:11:15.391Z,1.57
2017-09-04T10:13:43.551Z,1.80
2017-09-04T10:16:11.705Z,1.47
2017-09-04T10:18:39.801Z,1.90
2017-09-04T10:21:07.960Z,1.70
2017-09-04T10:23:36.083Z,1.40
2017-09-04T10:26:04.972Z,1.30
2017-09-04T10:28:33.699Z,1.67
2017-09-04T10:31:01.817Z,1.60
2017-09-04T10:33:30.032Z,1.57
2017-09-04T10:35:58.205Z,1.43
2017-09-04T10:38:26.383Z,1.33
2017-09-04T10:40:54.479Z,1.17
2017-09-04T10:43:22.662Z,1.70
2017-09-04T10:45:50.833Z,1.60
2017-09-04T10:48:18.995Z,1.40
2017-09-04T10:50:47.129Z,2.10
2017-09-04T10:53:15.282Z,1.60
2017-09-04T10:55:43.415Z,1.37
2017-09-04T10:58:11.564Z,1.83
2017-09-04T11:00:39.687Z,1.67
2017-09-04T11:03:07.833Z,1.77
2017-09-04T11:05:36.023Z,1.90
2017-09-04T11:08:04.299Z,2.07
2017-09-04T11:10:32.426Z,1.50
2017-09-04T11:13:00.604Z,2.10
2017-09-04T11:15:28.712Z,1.67
2017-09-04T11:17:56.854Z,1.90
2017-09-04T11:20:25.003Z,1.77
2017-09-04T11:22:53.141Z,2.30
2017-09-04T11:25:21.254Z,1.83
2017-09-04T11:27:49.677Z,1.97
2017-09-04T11:30:17.798Z,2.13
2017-09-04T11:32:46.668Z,1.90
2017-09-04T11:35:14.829Z,2.20
2017-09-04T11:37:43.026Z,2.70
2017-09-04T11:40:11.185Z,1.93
2017-09-04T11:42:39.292Z,1.67
2017-09-04T11:45:08.020Z,2.13
2017-09-04T11:47:36.141Z,1.80
2017-09-04T11:50:04.272Z,1.60
2017-09-04T11:52:32.411Z,1.67
2017-09-04T11:55:00.540Z,1.83
2017-09-04T11:57:28.666Z,1.80
2017-09-04T11:59:56.792Z,1.87
2017-09-04T12:02:25.108Z,2.00
2017-09-04T12:04:53.311Z,1.80
2017-09-04T12:07:21.540Z,1.73
2017-09-04T12:09:49.733Z,1.47
2017-09-04T12:12:17.969Z,1.87
2017-09-04T12:14:46.104Z,2.23
2017-09-04T12:17:16.888Z,2.00
2017-09-04T12:19:45.599Z,2.10
2017-09-04T12:22:13.766Z,2.47
2017-09-04T12:24:41.860Z,2.30
2017-09-04T12:27:10.072Z,1.83
2017-09-04T12:29:38.218Z,1.77
2017-09-04T12:32:06.318Z,2.00
2017-09-04T12:34:34.876Z,1.93
2017-09-04T12:37:03.100Z,2.20
2017-09-04T12:39:31.222Z,1.90
2017-09-04T12:41:59.349Z,1.93
2017-09-04T12:44:27.469Z,2.00
2017-09-04T12:46:55.600Z,2.60
2017-09-04T12:49:23.734Z,2.20
2017-09-04T12:51:51.918Z,1.87
2017-09-04T12:54:21.010Z,2.03
2017-09-04T12:56:49.125Z,1.67
2017-09-04T12:59:17.274Z,1.50
2017-09-04T13:01:46.245Z,1.70
2017-09-04T13:04:15.184Z,2.03
2017-09-04T13:06:43.352Z,2.00
2017-09-04T13:09:13.255Z,2.40
2017-09-04T13:11:47.211Z,1.80
2017-09-04T13:14:20.903Z,1.83
2017-09-04T13:16:55.568Z,1.50
2017-09-04T13:22:27.196Z,1.30
2017-09-04T13:25:01.145Z,1.80
2017-09-04T13:27:34.945Z,1.73
2017-09-04T13:30:08.756Z,1.80
2017-09-04T13:32:45.013Z,1.80
2017-09-04T13:38:27.365Z,2.00
2017-09-04T13:41:01.265Z,1.70
2017-09-04T13:43:35.309Z,1.43
2017-09-04T13:46:22.179Z,1.33
2017-09-04T13:48:55.914Z,1.43
2017-09-04T13:51:28.885Z,1.20
2017-09-04T13:54:02.804Z,1.70
2017-09-04T13:56:46.787Z,1.33
2017-09-04T13:59:20.521Z,1.50
2017-09-04T14:01:54.353Z,1.40
2017-09-04T14:04:28.216Z,2.07
2017-09-04T14:07:02.598Z,1.33
2017-09-04T14:09:37.174Z,1.43
2017-09-04T14:12:10.999Z,2.00
2017-09-04T14:14:44.891Z,1.90
2017-09-04T14:17:18.640Z,1.20
2017-09-04T14:19:46.945Z,1.30
2017-09-04T14:22:15.158Z,1.50
2017-09-04T14:24:43.273Z,1.70
2017-09-04T14:27:11.398Z,1.90
2017-09-04T14:29:39.527Z,1.70
2017-09-04T14:32:07.637Z,1.30
2017-09-04T14:34:35.764Z,1.40
2017-09-04T14:37:03.883Z,1.50
2017-09-04T14:39:31.976Z,1.60
2017-09-04T14:42:00.096Z,1.37
2017-09-04T14:44:30.048Z,1.43
2017-09-04T14:46:58.944Z,1.77
2017-09-04T14:49:27.101Z,1.73
2017-09-04T14:51:55.348Z,1.40
2017-09-04T14:54:23.452Z,1.33
2017-09-04T14:56:51.627Z,1.40
2017-09-04T14:59:19.769Z,1.50
2017-09-04T15:01:47.911Z,1.57
2017-09-04T15:04:16.045Z,1.40
2017-09-04T15:06:44.190Z,1.27
2017-09-04T15:09:12.306Z,1.47
2017-09-04T15:11:40.421Z,1.40
2017-09-04T15:14:08.528Z,1.23
2017-09-04T15:16:36.620Z,1.50
2017-09-04T15:19:04.733Z,1.43
2017-09-04T15:21:32.860Z,1.23
2017-09-04T15:24:00.982Z,1.70
2017-09-04T15:26:29.740Z,1.50
2017-09-04T15:28:58.037Z,1.50
2017-09-04T15:31:26.155Z,1.43
2017-09-04T15:33:54.295Z,1.47
2017-09-04T15:36:22.402Z,1.70
2017-09-04T15:38:50.510Z,1.93
2017-09-04T15:41:18.692Z,1.20
2017-09-04T15:43:46.803Z,1.50
2017-09-04T15:46:14.939Z,1.30
2017-09-04T15:48:43.072Z,1.47
2017-09-04T15:51:11.186Z,1.90
2017-09-04T15:53:39.315Z,1.43
2017-09-04T15:56:07.489Z,1.37
2017-09-04T15:58:35.595Z,1.30
2017-09-04T16:01:03.735Z,1.33
2017-09-04T16:03:31.849Z,1.40
2017-09-04T16:06:00.873Z,1.70
2017-09-04T16:08:29.020Z,1.57
2017-09-04T16:10:57.571Z,2.50
2017-09-04T16:13:27.201Z,4.60
2017-09-04T16:19:00.408Z,15.93
2017-09-04T16:21:28.977Z,14.27
2017-09-04T16:24:12.820Z,7.40
2017-09-04T16:26:56.609Z,9.30
2017-09-04T16:29:30.567Z,14.07
2017-09-04T16:31:58.719Z,18.17
2017-09-04T16:34:31.425Z,7.13
2017-09-04T16:37:02.263Z,2.60
2017-09-04T16:39:40.254Z,3.50
2017-09-04T16:42:09.236Z,2.17
2017-09-04T16:44:37.325Z,5.50
2017-09-04T16:47:11.064Z,2.03
2017-09-04T16:49:40.417Z,2.80
2017-09-04T16:52:09.657Z,1.80
2017-09-04T16:54:38.726Z,2.10
2017-09-04T16:57:06.837Z,1.73
2017-09-04T16:59:34.976Z,1.40
2017-09-04T17:02:03.187Z,1.40
2017-09-04T17:04:31.286Z,2.07
2017-09-04T17:06:59.399Z,1.43
2017-09-04T17:09:28.973Z,1.40
2017-09-04T17:12:01.536Z,1.40
2017-09-04T17:14:29.679Z,1.73
2017-09-04T17:17:00.311Z,1.57
2017-09-04T17:19:30.805Z,2.50
2017-09-04T17:22:02.508Z,1.40
2017-09-04T17:24:31.063Z,1.40
2017-09-04T17:26:59.168Z,1.53
2017-09-04T17:29:27.282Z,1.77
2017-09-04T17:31:55.468Z,1.50
2017-09-04T17:34:23.638Z,1.80
2017-09-04T17:36:52.624Z,1.40
2017-09-04T17:39:20.800Z,1.53
2017-09-04T17:41:48.947Z,1.90
2017-09-04T17:44:17.067Z,1.67
2017-09-04T17:46:45.199Z,1.47
2017-09-04T17:49:13.610Z,1.90
2017-09-04T17:51:41.760Z,2.20
2017-09-04T17:54:09.932Z,2.33
2017-09-04T17:56:38.234Z,1.50
2017-09-04T17:59:06.433Z,1.70
2017-09-04T18:01:34.573Z,1.50
2017-09-04T18:04:02.738Z,1.90
2017-09-04T18:06:30.908Z,2.20
2017-09-04T18:08:59.100Z,2.00
2017-09-04T18:11:27.260Z,1.93
2017-09-04T18:13:55.447Z,1.70
2017-09-04T18:16:23.589Z,2.23
2017-09-04T18:18:51.787Z,2.40
2017-09-04T18:21:19.918Z,3.47
2017-09-04T18:23:48.068Z,2.40
2017-09-04T18:26:16.374Z,2.00
2017-09-04T18:28:44.531Z,2.00
2017-09-04T18:31:12.838Z,2.00
2017-09-04T18:33:41.064Z,2.50
2017-09-04T18:36:09.233Z,2.10
2017-09-04T18:38:37.352Z,2.63
2017-09-04T18:41:05.532Z,2.33
2017-09-04T18:43:33.705Z,2.70
2017-09-04T18:46:02.055Z,2.17
2017-09-04T18:48:30.222Z,2.50
2017-09-04T18:50:58.324Z,2.57
2017-09-04T18:53:26.519Z,2.40
2017-09-04T18:55:54.765Z,2.47
2017-09-04T18:58:22.965Z,3.07
2017-09-04T19:00:51.213Z,3.73
2017-09-04T19:03:19.341Z,2.27
2017-09-04T19:05:47.490Z,2.40
2017-09-04T19:08:15.637Z,2.23
2017-09-04T19:10:43.758Z,2.50
2017-09-04T19:13:12.315Z,2.30
2017-09-04T19:15:40.456Z,2.57
2017-09-04T19:18:08.563Z,3.33
2017-09-04T19:20:36.718Z,2.83
2017-09-04T19:23:05.306Z,2.83
2017-09-04T19:25:33.410Z,2.50
2017-09-04T19:28:01.500Z,2.47
2017-09-04T19:30:29.651Z,2.47
2017-09-04T19:32:57.781Z,2.63
2017-09-04T19:35:25.899Z,2.30
2017-09-04T19:37:54.040Z,3.90
2017-09-04T19:40:22.135Z,3.43
2017-09-04T19:42:50.231Z,2.87
2017-09-04T19:45:18.362Z,3.80
2017-09-04T19:47:46.502Z,2.90
2017-09-04T19:50:14.721Z,4.07
2017-09-04T19:52:42.898Z,3.87
2017-09-04T19:55:11.078Z,2.13
2017-09-04T19:57:39.214Z,2.93
2017-09-04T20:00:07.451Z,3.03
2017-09-04T20:02:35.701Z,2.40
2017-09-04T20:05:03.935Z,2.90
2017-09-04T20:07:32.103Z,3.27
2017-09-04T20:10:00.892Z,2.30
2017-09-04T20:12:29.064Z,2.67
2017-09-04T20:14:57.239Z,2.20
2017-09-04T20:17:25.398Z,2.80
2017-09-04T20:19:53.484Z,2.47
2017-09-04T20:22:21.723Z,2.00
2017-09-04T20:24:49.828Z,2.77
2017-09-04T20:27:17.912Z,2.23
2017-09-04T20:29:46.038Z,2.50
2017-09-04T20:32:14.161Z,3.60
2017-09-04T20:34:42.321Z,2.80
2017-09-04T20:37:10.516Z,2.50
2017-09-04T20:39:38.653Z,2.67
2017-09-04T20:42:07.087Z,3.00
2017-09-04T20:44:35.234Z,2.80
2017-09-04T20:47:03.465Z,4.07
2017-09-04T20:49:31.786Z,3.23
2017-09-04T20:51:59.987Z,3.27
2017-09-04T20:54:28.359Z,3.67
2017-09-04T20:56:56.522Z,3.30
2017-09-04T20:59:24.625Z,4.33
2017-09-04T21:01:52.770Z,4.50
2017-09-04T21:04:20.949Z,3.47
2017-09-04T21:06:50.046Z,3.40
2017-09-04T21:09:18.158Z,2.60
2017-09-04T21:11:47.225Z,3.80
2017-09-04T21:14:16.210Z,6.90
2017-09-04T21:16:44.392Z,3.20
2017-09-04T21:19:13.097Z,2.80
2017-09-04T21:21:41.228Z,2.97
2017-09-04T21:24:09.357Z,3.57
2017-09-04T21:26:37.617Z,3.80
2017-09-04T21:29:05.749Z,2.77
2017-09-04T21:31:33.891Z,3.37
2017-09-04T21:34:02.178Z,3.73
2017-09-04T21:36:30.351Z,3.67
2017-09-04T21:38:58.530Z,6.13
2017-09-04T21:41:26.796Z,4.80
2017-09-04T21:43:54.994Z,4.47
2017-09-04T21:46:23.142Z,3.80
2017-09-04T21:48:52.162Z,3.27
2017-09-04T21:51:20.305Z,4.17
2017-09-04T21:53:48.450Z,4.23
2017-09-04T21:56:16.586Z,5.53
2017-09-04T21:58:45.310Z,6.43
2017-09-04T22:01:13.470Z,6.60
2017-09-04T22:03:41.688Z,6.03
2017-09-04T22:06:09.859Z,3.40
2017-09-04T22:08:38.022Z,4.10
2017-09-04T22:11:06.134Z,3.20
2017-09-04T22:13:34.350Z,2.23
2017-09-04T22:16:02.520Z,3.20
2017-09-04T22:18:30.657Z,3.23
2017-09-04T22:20:58.768Z,2.90
2017-09-04T22:23:27.148Z,3.50
2017-09-04T22:25:55.298Z,2.53
2017-09-04T22:28:23.527Z,2.63
2017-09-04T22:30:51.671Z,2.80
2017-09-04T22:33:19.803Z,2.90
2017-09-04T22:35:47.924Z,2.70
2017-09-04T22:38:16.037Z,3.00
2017-09-04T22:40:44.182Z,2.50
2017-09-04T22:43:17.924Z,3.00
2017-09-04T22:45:46.384Z,3.03
2017-09-04T22:48:14.477Z,2.53
2017-09-04T22:50:42.697Z,3.17
2017-09-04T22:53:11.201Z,2.70
2017-09-04T22:55:39.299Z,2.53
2017-09-04T22:58:09.210Z,2.37
2017-09-04T23:00:37.354Z,2.70
2017-09-04T23:03:06.248Z,3.10
2017-09-04T23:05:34.392Z,2.70
2017-09-04T23:08:02.546Z,2.90
2017-09-04T23:10:30.645Z,3.00
2017-09-04T23:12:58.812Z,2.50
2017-09-04T23:15:26.934Z,2.60
2017-09-04T23:17:55.057Z,2.83
2017-09-04T23:20:23.181Z,2.70
2017-09-04T23:22:51.334Z,2.60
2017-09-04T23:25:19.437Z,2.70
2017-09-04T23:27:47.785Z,4.00
2017-09-04T23:30:15.928Z,2.50
2017-09-04T23:32:44.037Z,2.80
2017-09-04T23:35:12.127Z,2.73
2017-09-04T23:37:40.269Z,3.10
2017-09-04T23:40:08.366Z,3.40
2017-09-04T23:42:36.476Z,3.10
2017-09-04T23:45:04.639Z,3.20
2017-09-04T23:47:32.779Z,3.17
2017-09-04T23:50:00.950Z,3.30
2017-09-04T23:52:29.124Z,3.57
2017-09-04T23:54:57.219Z,3.00
2017-09-04T23:57:25.357Z,3.60
2017-09-04T23:59:53.547Z,3.50
